sensor_id;sensor_type;location;lat;lon;timestamp;P1;durP1;ratioP1;P2;durP2;ratioP2
10910;SDS011;5508;49.150;11.030;2023-06-22T00:01:40;10.83;;;9.73;;
10910;SDS011;5508;49.150;11.030;2023-06-22T00:04:41;10.10;;;9.20;;
10910;SDS011;5508;49.150;11.030;2023-06-22T00:07:42;10.27;;;9.07;;
10910;SDS011;5508;49.150;11.030;2023-06-22T00:10:43;9.03;;;8.10;;
10910;SDS011;5508;49.150;11.030;2023-06-22T00:13:44;11.20;;;9.23;;
10910;SDS011;5508;49.150;11.030;2023-06-22T00:16:45;11.77;;;8.73;;
10910;SDS011;5508;49.150;11.030;2023-06-22T00:19:48;9.23;;;8.27;;
10910;SDS011;5508;49.150;11.030;2023-06-22T00:22:56;10.77;;;9.77;;
10910;SDS011;5508;49.150;11.030;2023-06-22T00:25:58;12.27;;;10.60;;
10910;SDS011;5508;49.150;11.030;2023-06-22T00:28:58;12.40;;;11.10;;
10910;SDS011;5508;49.150;11.030;2023-06-22T00:31:59;12.17;;;11.07;;
10910;SDS011;5508;49.150;11.030;2023-06-22T00:34:59;12.43;;;10.83;;
10910;SDS011;5508;49.150;11.030;2023-06-22T00:38:00;11.23;;;10.13;;
10910;SDS011;5508;49.150;11.030;2023-06-22T00:41:02;12.53;;;11.23;;
10910;SDS011;5508;49.150;11.030;2023-06-22T00:44:02;16.87;;;11.47;;
10910;SDS011;5508;49.150;11.030;2023-06-22T00:47:04;12.13;;;10.70;;
10910;SDS011;5508;49.150;11.030;2023-06-22T00:50:06;12.00;;;10.47;;
10910;SDS011;5508;49.150;11.030;2023-06-22T00:53:09;10.10;;;9.17;;
10910;SDS011;5508;49.150;11.030;2023-06-22T00:56:11;13.17;;;9.80;;
10910;SDS011;5508;49.150;11.030;2023-06-22T00:59:12;11.13;;;9.77;;
10910;SDS011;5508;49.150;11.030;2023-06-22T01:02:13;12.00;;;10.50;;
10910;SDS011;5508;49.150;11.030;2023-06-22T01:05:14;11.93;;;10.83;;
10910;SDS011;5508;49.150;11.030;2023-06-22T01:11:21;12.13;;;10.90;;
10910;SDS011;5508;49.150;11.030;2023-06-22T01:14:41;9.97;;;8.93;;
10910;SDS011;5508;49.150;11.030;2023-06-22T01:17:47;9.17;;;8.37;;
10910;SDS011;5508;49.150;11.030;2023-06-22T01:20:49;10.93;;;7.97;;
10910;SDS011;5508;49.150;11.030;2023-06-22T01:30:51;10.33;;;9.43;;
10910;SDS011;5508;49.150;11.030;2023-06-22T01:34:04;10.27;;;9.13;;
10910;SDS011;5508;49.150;11.030;2023-06-22T01:37:06;9.90;;;8.93;;
10910;SDS011;5508;49.150;11.030;2023-06-22T01:40:07;9.73;;;8.60;;
10910;SDS011;5508;49.150;11.030;2023-06-22T01:43:08;10.67;;;9.57;;
10910;SDS011;5508;49.150;11.030;2023-06-22T01:46:09;12.17;;;9.57;;
10910;SDS011;5508;49.150;11.030;2023-06-22T01:49:11;13.17;;;7.83;;
10910;SDS011;5508;49.150;11.030;2023-06-22T01:52:13;10.07;;;9.00;;
10910;SDS011;5508;49.150;11.030;2023-06-22T01:55:13;13.20;;;8.90;;
10910;SDS011;5508;49.150;11.030;2023-06-22T01:58:14;10.23;;;9.13;;
10910;SDS011;5508;49.150;11.030;2023-06-22T02:01:16;11.20;;;8.77;;
10910;SDS011;5508;49.150;11.030;2023-06-22T02:04:21;9.57;;;7.97;;
10910;SDS011;5508;49.150;11.030;2023-06-22T02:07:28;10.20;;;9.20;;
10910;SDS011;5508;49.150;11.030;2023-06-22T02:10:32;11.20;;;10.17;;
10910;SDS011;5508;49.150;11.030;2023-06-22T02:13:36;11.17;;;10.10;;
10910;SDS011;5508;49.150;11.030;2023-06-22T02:16:37;11.40;;;10.20;;
10910;SDS011;5508;49.150;11.030;2023-06-22T02:19:41;12.73;;;9.83;;
10910;SDS011;5508;49.150;11.030;2023-06-22T02:22:42;10.23;;;9.23;;
10910;SDS011;5508;49.150;11.030;2023-06-22T02:25:42;10.10;;;9.10;;
10910;SDS011;5508;49.150;11.030;2023-06-22T02:28:44;11.07;;;9.87;;
10910;SDS011;5508;49.150;11.030;2023-06-22T02:31:45;8.73;;;7.80;;
10910;SDS011;5508;49.150;11.030;2023-06-22T02:34:46;9.80;;;8.80;;
10910;SDS011;5508;49.150;11.030;2023-06-22T02:37:47;10.33;;;8.57;;
10910;SDS011;5508;49.150;11.030;2023-06-22T02:40:51;9.30;;;8.40;;
10910;SDS011;5508;49.150;11.030;2023-06-22T02:43:52;10.73;;;8.77;;
10910;SDS011;5508;49.150;11.030;2023-06-22T02:46:53;12.90;;;8.73;;
10910;SDS011;5508;49.150;11.030;2023-06-22T02:49:54;8.90;;;8.00;;
10910;SDS011;5508;49.150;11.030;2023-06-22T02:52:55;8.27;;;7.50;;
10910;SDS011;5508;49.150;11.030;2023-06-22T02:55:55;11.00;;;9.87;;
10910;SDS011;5508;49.150;11.030;2023-06-22T02:58:56;12.30;;;10.80;;
10910;SDS011;5508;49.150;11.030;2023-06-22T03:02:00;12.30;;;11.00;;
10910;SDS011;5508;49.150;11.030;2023-06-22T03:05:02;12.70;;;11.40;;
10910;SDS011;5508;49.150;11.030;2023-06-22T03:08:04;12.97;;;11.67;;
10910;SDS011;5508;49.150;11.030;2023-06-22T03:11:04;12.40;;;11.20;;
10910;SDS011;5508;49.150;11.030;2023-06-22T03:14:05;18.53;;;12.90;;
10910;SDS011;5508;49.150;11.030;2023-06-22T03:17:05;17.00;;;12.20;;
10910;SDS011;5508;49.150;11.030;2023-06-22T03:20:06;15.30;;;11.83;;
10910;SDS011;5508;49.150;11.030;2023-06-22T03:23:11;16.93;;;11.90;;
10910;SDS011;5508;49.150;11.030;2023-06-22T03:26:12;13.77;;;12.13;;
10910;SDS011;5508;49.150;11.030;2023-06-22T03:29:13;13.07;;;11.50;;
10910;SDS011;5508;49.150;11.030;2023-06-22T03:32:15;15.67;;;10.97;;
10910;SDS011;5508;49.150;11.030;2023-06-22T03:35:15;14.97;;;10.83;;
10910;SDS011;5508;49.150;11.030;2023-06-22T03:38:16;13.67;;;10.87;;
10910;SDS011;5508;49.150;11.030;2023-06-22T03:41:17;14.27;;;11.07;;
10910;SDS011;5508;49.150;11.030;2023-06-22T03:44:18;15.70;;;10.47;;
10910;SDS011;5508;49.150;11.030;2023-06-22T03:47:18;16.17;;;13.30;;
10910;SDS011;5508;49.150;11.030;2023-06-22T03:50:19;17.63;;;11.90;;
10910;SDS011;5508;49.150;11.030;2023-06-22T03:53:20;14.07;;;12.20;;
10910;SDS011;5508;49.150;11.030;2023-06-22T03:56:20;10.93;;;9.87;;
10910;SDS011;5508;49.150;11.030;2023-06-22T03:59:21;12.67;;;10.07;;
10910;SDS011;5508;49.150;11.030;2023-06-22T04:02:22;11.77;;;9.40;;
10910;SDS011;5508;49.150;11.030;2023-06-22T04:05:22;12.83;;;10.77;;
10910;SDS011;5508;49.150;11.030;2023-06-22T04:08:24;15.45;;;12.20;;
10910;SDS011;5508;49.150;11.030;2023-06-22T04:11:24;17.60;;;13.40;;
10910;SDS011;5508;49.150;11.030;2023-06-22T04:14:25;15.17;;;13.57;;
10910;SDS011;5508;49.150;11.030;2023-06-22T04:17:26;15.80;;;13.50;;
10910;SDS011;5508;49.150;11.030;2023-06-22T04:20:26;16.13;;;13.50;;
10910;SDS011;5508;49.150;11.030;2023-06-22T04:23:27;13.93;;;12.53;;
10910;SDS011;5508;49.150;11.030;2023-06-22T04:26:27;14.43;;;13.13;;
10910;SDS011;5508;49.150;11.030;2023-06-22T04:29:31;14.77;;;13.07;;
10910;SDS011;5508;49.150;11.030;2023-06-22T04:32:31;14.07;;;12.77;;
10910;SDS011;5508;49.150;11.030;2023-06-22T04:35:32;13.67;;;12.27;;
10910;SDS011;5508;49.150;11.030;2023-06-22T04:38:33;15.03;;;13.53;;
10910;SDS011;5508;49.150;11.030;2023-06-22T04:41:33;15.57;;;14.03;;
10910;SDS011;5508;49.150;11.030;2023-06-22T04:44:41;15.70;;;14.00;;
10910;SDS011;5508;49.150;11.030;2023-06-22T04:47:42;15.67;;;14.17;;
10910;SDS011;5508;49.150;11.030;2023-06-22T04:50:45;13.93;;;12.53;;
10910;SDS011;5508;49.150;11.030;2023-06-22T04:53:46;13.97;;;12.67;;
10910;SDS011;5508;49.150;11.030;2023-06-22T04:56:46;14.77;;;13.20;;
10910;SDS011;5508;49.150;11.030;2023-06-22T04:59:48;13.67;;;12.27;;
10910;SDS011;5508;49.150;11.030;2023-06-22T05:02:48;14.13;;;12.63;;
10910;SDS011;5508;49.150;11.030;2023-06-22T05:05:49;14.70;;;13.30;;
10910;SDS011;5508;49.150;11.030;2023-06-22T05:08:52;14.07;;;12.77;;
10910;SDS011;5508;49.150;11.030;2023-06-22T05:11:59;14.20;;;12.73;;
10910;SDS011;5508;49.150;11.030;2023-06-22T05:15:02;16.80;;;12.57;;
10910;SDS011;5508;49.150;11.030;2023-06-22T05:18:02;14.63;;;13.13;;
10910;SDS011;5508;49.150;11.030;2023-06-22T05:21:05;18.23;;;14.40;;
10910;SDS011;5508;49.150;11.030;2023-06-22T05:24:05;16.17;;;13.60;;
10910;SDS011;5508;49.150;11.030;2023-06-22T05:27:06;14.93;;;13.17;;
10910;SDS011;5508;49.150;11.030;2023-06-22T05:30:07;13.43;;;12.23;;
10910;SDS011;5508;49.150;11.030;2023-06-22T05:33:09;13.23;;;12.03;;
10910;SDS011;5508;49.150;11.030;2023-06-22T05:36:10;13.37;;;12.17;;
10910;SDS011;5508;49.150;11.030;2023-06-22T05:39:11;12.73;;;11.43;;
10910;SDS011;5508;49.150;11.030;2023-06-22T05:42:16;16.03;;;12.07;;
10910;SDS011;5508;49.150;11.030;2023-06-22T05:45:16;14.10;;;12.73;;
10910;SDS011;5508;49.150;11.030;2023-06-22T05:48:17;13.00;;;11.73;;
10910;SDS011;5508;49.150;11.030;2023-06-22T05:51:17;16.53;;;12.20;;
10910;SDS011;5508;49.150;11.030;2023-06-22T05:54:18;17.73;;;12.17;;
10910;SDS011;5508;49.150;11.030;2023-06-22T05:57:19;15.80;;;11.93;;
10910;SDS011;5508;49.150;11.030;2023-06-22T06:00:21;13.20;;;11.67;;
10910;SDS011;5508;49.150;11.030;2023-06-22T06:03:23;14.20;;;11.50;;
10910;SDS011;5508;49.150;11.030;2023-06-22T06:06:24;13.27;;;11.60;;
10910;SDS011;5508;49.150;11.030;2023-06-22T06:09:28;12.33;;;10.50;;
10910;SDS011;5508;49.150;11.030;2023-06-22T06:12:29;13.48;;;9.18;;
10910;SDS011;5508;49.150;11.030;2023-06-22T06:15:29;12.05;;;10.43;;
10910;SDS011;5508;49.150;11.030;2023-06-22T06:18:30;12.32;;;10.35;;
10910;SDS011;5508;49.150;11.030;2023-06-22T06:21:31;13.40;;;11.65;;
10910;SDS011;5508;49.150;11.030;2023-06-22T06:24:32;11.82;;;10.73;;
10910;SDS011;5508;49.150;11.030;2023-06-22T06:27:32;14.85;;;10.13;;
10910;SDS011;5508;49.150;11.030;2023-06-22T06:30:33;10.13;;;9.13;;
10910;SDS011;5508;49.150;11.030;2023-06-22T06:33:35;14.52;;;10.35;;
10910;SDS011;5508;49.150;11.030;2023-06-22T06:36:36;10.48;;;9.48;;
10910;SDS011;5508;49.150;11.030;2023-06-22T06:39:37;10.27;;;8.60;;
10910;SDS011;5508;49.150;11.030;2023-06-22T06:42:38;10.90;;;8.27;;
10910;SDS011;5508;49.150;11.030;2023-06-22T06:45:41;11.70;;;8.10;;
10910;SDS011;5508;49.150;11.030;2023-06-22T06:48:42;10.43;;;8.05;;
10910;SDS011;5508;49.150;11.030;2023-06-22T06:51:46;9.48;;;7.65;;
10910;SDS011;5508;49.150;11.030;2023-06-22T06:54:46;8.00;;;7.20;;
10910;SDS011;5508;49.150;11.030;2023-06-22T06:57:47;11.98;;;8.48;;
10910;SDS011;5508;49.150;11.030;2023-06-22T07:00:48;10.80;;;8.18;;
10910;SDS011;5508;49.150;11.030;2023-06-22T07:03:49;11.82;;;7.40;;
10910;SDS011;5508;49.150;11.030;2023-06-22T07:06:49;10.00;;;6.63;;
10910;SDS011;5508;49.150;11.030;2023-06-22T07:09:50;12.13;;;6.53;;
10910;SDS011;5508;49.150;11.030;2023-06-22T07:12:51;11.02;;;6.43;;
10910;SDS011;5508;49.150;11.030;2023-06-22T07:15:51;8.85;;;6.25;;
10910;SDS011;5508;49.150;11.030;2023-06-22T07:18:52;6.70;;;5.95;;
10910;SDS011;5508;49.150;11.030;2023-06-22T07:21:53;12.30;;;6.25;;
10910;SDS011;5508;49.150;11.030;2023-06-22T07:24:54;7.85;;;5.82;;
10910;SDS011;5508;49.150;11.030;2023-06-22T07:27:58;7.18;;;5.32;;
10910;SDS011;5508;49.150;11.030;2023-06-22T07:31:03;7.13;;;5.78;;
10910;SDS011;5508;49.150;11.030;2023-06-22T07:34:04;9.13;;;5.82;;
10910;SDS011;5508;49.150;11.030;2023-06-22T07:37:05;7.60;;;5.18;;
10910;SDS011;5508;49.150;11.030;2023-06-22T07:40:06;9.10;;;6.88;;
10910;SDS011;5508;49.150;11.030;2023-06-22T07:43:07;5.75;;;5.00;;
10910;SDS011;5508;49.150;11.030;2023-06-22T07:46:08;5.15;;;3.83;;
10910;SDS011;5508;49.150;11.030;2023-06-22T07:49:09;5.85;;;4.70;;
10910;SDS011;5508;49.150;11.030;2023-06-22T07:52:09;5.93;;;4.70;;
10910;SDS011;5508;49.150;11.030;2023-06-22T07:55:11;6.47;;;3.85;;
10910;SDS011;5508;49.150;11.030;2023-06-22T07:58:11;7.05;;;4.40;;
10910;SDS011;5508;49.150;11.030;2023-06-22T08:01:12;8.68;;;4.47;;
10910;SDS011;5508;49.150;11.030;2023-06-22T08:04:16;7.35;;;3.85;;
10910;SDS011;5508;49.150;11.030;2023-06-22T08:07:17;8.10;;;4.00;;
10910;SDS011;5508;49.150;11.030;2023-06-22T08:10:19;8.75;;;3.72;;
10910;SDS011;5508;49.150;11.030;2023-06-22T08:13:20;8.05;;;4.28;;
10910;SDS011;5508;49.150;11.030;2023-06-22T08:16:21;6.75;;;3.97;;
10910;SDS011;5508;49.150;11.030;2023-06-22T08:19:22;8.68;;;3.75;;
10910;SDS011;5508;49.150;11.030;2023-06-22T08:22:22;8.98;;;4.20;;
10910;SDS011;5508;49.150;11.030;2023-06-22T08:25:23;7.25;;;4.22;;
10910;SDS011;5508;49.150;11.030;2023-06-22T08:28:24;8.38;;;3.45;;
10910;SDS011;5508;49.150;11.030;2023-06-22T08:31:24;9.23;;;3.65;;
10910;SDS011;5508;49.150;11.030;2023-06-22T08:34:25;9.07;;;3.30;;
10910;SDS011;5508;49.150;11.030;2023-06-22T08:37:27;8.73;;;3.65;;
10910;SDS011;5508;49.150;11.030;2023-06-22T08:40:31;5.90;;;3.50;;
10910;SDS011;5508;49.150;11.030;2023-06-22T08:43:32;5.07;;;4.10;;
10910;SDS011;5508;49.150;11.030;2023-06-22T08:46:32;9.43;;;4.18;;
10910;SDS011;5508;49.150;11.030;2023-06-22T08:49:33;6.70;;;3.97;;
10910;SDS011;5508;49.150;11.030;2023-06-22T08:52:34;5.45;;;3.80;;
10910;SDS011;5508;49.150;11.030;2023-06-22T08:55:35;5.88;;;3.80;;
10910;SDS011;5508;49.150;11.030;2023-06-22T08:58:35;10.95;;;3.83;;
10910;SDS011;5508;49.150;11.030;2023-06-22T09:01:36;5.40;;;3.67;;
10910;SDS011;5508;49.150;11.030;2023-06-22T09:04:36;6.13;;;3.60;;
10910;SDS011;5508;49.150;11.030;2023-06-22T09:07:37;8.60;;;4.25;;
10910;SDS011;5508;49.150;11.030;2023-06-22T09:10:38;10.48;;;3.78;;
10910;SDS011;5508;49.150;11.030;2023-06-22T09:13:38;6.82;;;3.40;;
10910;SDS011;5508;49.150;11.030;2023-06-22T09:16:39;7.68;;;3.80;;
10910;SDS011;5508;49.150;11.030;2023-06-22T09:19:39;6.55;;;3.70;;
10910;SDS011;5508;49.150;11.030;2023-06-22T09:22:40;9.32;;;3.50;;
10910;SDS011;5508;49.150;11.030;2023-06-22T09:25:41;9.57;;;4.20;;
10910;SDS011;5508;49.150;11.030;2023-06-22T09:28:41;7.97;;;3.65;;
10910;SDS011;5508;49.150;11.030;2023-06-22T09:31:42;7.70;;;3.72;;
10910;SDS011;5508;49.150;11.030;2023-06-22T09:34:43;6.57;;;3.90;;
10910;SDS011;5508;49.150;11.030;2023-06-22T09:37:43;5.13;;;3.63;;
10910;SDS011;5508;49.150;11.030;2023-06-22T09:40:45;8.43;;;3.80;;
10910;SDS011;5508;49.150;11.030;2023-06-22T09:43:45;11.95;;;4.28;;
10910;SDS011;5508;49.150;11.030;2023-06-22T09:46:46;5.53;;;3.38;;
10910;SDS011;5508;49.150;11.030;2023-06-22T09:49:46;11.57;;;4.80;;
10910;SDS011;5508;49.150;11.030;2023-06-22T09:52:47;4.82;;;3.47;;
10910;SDS011;5508;49.150;11.030;2023-06-22T09:55:50;5.93;;;3.85;;
10910;SDS011;5508;49.150;11.030;2023-06-22T09:58:51;10.10;;;4.45;;
10910;SDS011;5508;49.150;11.030;2023-06-22T10:01:52;8.32;;;3.90;;
10910;SDS011;5508;49.150;11.030;2023-06-22T10:04:53;7.50;;;3.88;;
10910;SDS011;5508;49.150;11.030;2023-06-22T10:07:53;7.68;;;4.28;;
10910;SDS011;5508;49.150;11.030;2023-06-22T10:10:54;9.88;;;3.83;;
10910;SDS011;5508;49.150;11.030;2023-06-22T10:13:55;12.10;;;4.38;;
10910;SDS011;5508;49.150;11.030;2023-06-22T10:16:55;7.45;;;4.07;;
10910;SDS011;5508;49.150;11.030;2023-06-22T10:19:56;12.45;;;4.05;;
10910;SDS011;5508;49.150;11.030;2023-06-22T10:22:56;10.43;;;4.45;;
10910;SDS011;5508;49.150;11.030;2023-06-22T10:25:57;11.07;;;4.15;;
10910;SDS011;5508;49.150;11.030;2023-06-22T10:28:58;9.55;;;4.43;;
10910;SDS011;5508;49.150;11.030;2023-06-22T10:31:59;7.93;;;4.25;;
10910;SDS011;5508;49.150;11.030;2023-06-22T10:35:00;9.50;;;4.18;;
10910;SDS011;5508;49.150;11.030;2023-06-22T10:38:00;8.35;;;4.43;;
10910;SDS011;5508;49.150;11.030;2023-06-22T10:41:01;13.45;;;4.35;;
10910;SDS011;5508;49.150;11.030;2023-06-22T10:44:02;8.75;;;3.97;;
10910;SDS011;5508;49.150;11.030;2023-06-22T10:47:03;8.73;;;4.15;;
10910;SDS011;5508;49.150;11.030;2023-06-22T10:50:04;8.55;;;4.32;;
10910;SDS011;5508;49.150;11.030;2023-06-22T10:53:05;7.43;;;4.28;;
10910;SDS011;5508;49.150;11.030;2023-06-22T10:56:05;10.57;;;4.78;;
10910;SDS011;5508;49.150;11.030;2023-06-22T10:59:06;9.38;;;4.55;;
10910;SDS011;5508;49.150;11.030;2023-06-22T11:02:07;15.40;;;5.13;;
10910;SDS011;5508;49.150;11.030;2023-06-22T11:05:08;9.27;;;4.38;;
10910;SDS011;5508;49.150;11.030;2023-06-22T11:08:08;11.07;;;4.68;;
10910;SDS011;5508;49.150;11.030;2023-06-22T11:11:09;10.80;;;4.55;;
10910;SDS011;5508;49.150;11.030;2023-06-22T11:14:09;9.98;;;4.25;;
10910;SDS011;5508;49.150;11.030;2023-06-22T11:17:10;9.80;;;4.90;;
10910;SDS011;5508;49.150;11.030;2023-06-22T11:20:11;10.40;;;4.88;;
10910;SDS011;5508;49.150;11.030;2023-06-22T11:23:12;13.40;;;4.47;;
10910;SDS011;5508;49.150;11.030;2023-06-22T11:26:12;7.63;;;4.53;;
10910;SDS011;5508;49.150;11.030;2023-06-22T11:29:13;9.95;;;4.53;;
10910;SDS011;5508;49.150;11.030;2023-06-22T11:32:13;8.80;;;4.40;;
10910;SDS011;5508;49.150;11.030;2023-06-22T11:35:14;10.35;;;4.57;;
10910;SDS011;5508;49.150;11.030;2023-06-22T11:38:14;11.82;;;4.90;;
10910;SDS011;5508;49.150;11.030;2023-06-22T11:41:15;14.93;;;4.57;;
10910;SDS011;5508;49.150;11.030;2023-06-22T11:44:16;8.10;;;4.28;;
10910;SDS011;5508;49.150;11.030;2023-06-22T11:47:16;10.35;;;4.78;;
10910;SDS011;5508;49.150;11.030;2023-06-22T11:50:17;11.75;;;4.85;;
10910;SDS011;5508;49.150;11.030;2023-06-22T11:53:17;12.05;;;4.65;;
10910;SDS011;5508;49.150;11.030;2023-06-22T11:56:18;7.85;;;4.22;;
10910;SDS011;5508;49.150;11.030;2023-06-22T11:59:19;16.20;;;5.35;;
10910;SDS011;5508;49.150;11.030;2023-06-22T12:02:21;10.30;;;4.15;;
10910;SDS011;5508;49.150;11.030;2023-06-22T12:05:21;10.65;;;4.40;;
10910;SDS011;5508;49.150;11.030;2023-06-22T12:08:24;11.63;;;4.78;;
10910;SDS011;5508;49.150;11.030;2023-06-22T12:11:24;11.38;;;4.63;;
10910;SDS011;5508;49.150;11.030;2023-06-22T12:14:25;11.63;;;5.68;;
10910;SDS011;5508;49.150;11.030;2023-06-22T12:17:26;13.63;;;4.80;;
10910;SDS011;5508;49.150;11.030;2023-06-22T12:20:26;13.00;;;4.35;;
10910;SDS011;5508;49.150;11.030;2023-06-22T12:23:27;8.30;;;4.93;;
10910;SDS011;5508;49.150;11.030;2023-06-22T12:26:27;9.45;;;4.53;;
10910;SDS011;5508;49.150;11.030;2023-06-22T12:29:28;10.95;;;4.70;;
10910;SDS011;5508;49.150;11.030;2023-06-22T12:32:28;12.27;;;5.00;;
10910;SDS011;5508;49.150;11.030;2023-06-22T12:35:30;10.32;;;4.40;;
10910;SDS011;5508;49.150;11.030;2023-06-22T12:38:30;11.55;;;4.72;;
10910;SDS011;5508;49.150;11.030;2023-06-22T12:41:31;10.65;;;4.60;;
10910;SDS011;5508;49.150;11.030;2023-06-22T12:44:32;10.18;;;4.95;;
10910;SDS011;5508;49.150;11.030;2023-06-22T12:47:32;13.02;;;4.40;;
10910;SDS011;5508;49.150;11.030;2023-06-22T12:50:33;10.25;;;4.57;;
10910;SDS011;5508;49.150;11.030;2023-06-22T12:53:34;10.25;;;5.15;;
10910;SDS011;5508;49.150;11.030;2023-06-22T12:56:35;14.30;;;5.38;;
10910;SDS011;5508;49.150;11.030;2023-06-22T12:59:36;13.77;;;5.53;;
10910;SDS011;5508;49.150;11.030;2023-06-22T13:02:36;9.70;;;5.30;;
10910;SDS011;5508;49.150;11.030;2023-06-22T13:05:37;11.13;;;4.40;;
10910;SDS011;5508;49.150;11.030;2023-06-22T13:08:38;14.25;;;5.20;;
10910;SDS011;5508;49.150;11.030;2023-06-22T13:11:38;9.13;;;4.78;;
10910;SDS011;5508;49.150;11.030;2023-06-22T13:14:39;10.55;;;4.90;;
10910;SDS011;5508;49.150;11.030;2023-06-22T13:17:40;10.98;;;4.90;;
10910;SDS011;5508;49.150;11.030;2023-06-22T13:20:41;9.82;;;4.78;;
10910;SDS011;5508;49.150;11.030;2023-06-22T13:23:41;10.20;;;4.45;;
10910;SDS011;5508;49.150;11.030;2023-06-22T13:26:42;9.05;;;4.55;;
10910;SDS011;5508;49.150;11.030;2023-06-22T13:29:42;9.88;;;5.20;;
10910;SDS011;5508;49.150;11.030;2023-06-22T13:32:43;13.40;;;5.20;;
10910;SDS011;5508;49.150;11.030;2023-06-22T13:35:44;14.40;;;5.70;;
10910;SDS011;5508;49.150;11.030;2023-06-22T13:38:44;13.32;;;5.47;;
10910;SDS011;5508;49.150;11.030;2023-06-22T13:41:45;15.77;;;4.95;;
10910;SDS011;5508;49.150;11.030;2023-06-22T13:44:45;13.75;;;4.90;;
10910;SDS011;5508;49.150;11.030;2023-06-22T13:47:46;14.20;;;4.80;;
10910;SDS011;5508;49.150;11.030;2023-06-22T13:50:47;12.43;;;5.32;;
10910;SDS011;5508;49.150;11.030;2023-06-22T13:53:47;12.00;;;5.38;;
10910;SDS011;5508;49.150;11.030;2023-06-22T13:56:48;11.20;;;5.70;;
10910;SDS011;5508;49.150;11.030;2023-06-22T13:59:48;12.43;;;5.70;;
10910;SDS011;5508;49.150;11.030;2023-06-22T14:02:49;12.18;;;5.20;;
10910;SDS011;5508;49.150;11.030;2023-06-22T14:05:51;11.98;;;5.80;;
10910;SDS011;5508;49.150;11.030;2023-06-22T14:08:54;9.13;;;4.80;;
10910;SDS011;5508;49.150;11.030;2023-06-22T14:11:54;14.00;;;5.80;;
10910;SDS011;5508;49.150;11.030;2023-06-22T14:14:56;14.15;;;4.97;;
10910;SDS011;5508;49.150;11.030;2023-06-22T14:17:57;12.73;;;5.80;;
10910;SDS011;5508;49.150;11.030;2023-06-22T14:20:58;15.07;;;4.85;;
10910;SDS011;5508;49.150;11.030;2023-06-22T14:23:58;15.15;;;4.82;;
10910;SDS011;5508;49.150;11.030;2023-06-22T14:26:59;10.70;;;5.28;;
10910;SDS011;5508;49.150;11.030;2023-06-22T14:30:02;13.10;;;5.28;;
10910;SDS011;5508;49.150;11.030;2023-06-22T14:33:03;12.52;;;4.85;;
10910;SDS011;5508;49.150;11.030;2023-06-22T14:36:03;15.52;;;5.47;;
10910;SDS011;5508;49.150;11.030;2023-06-22T14:39:04;10.23;;;5.15;;
10910;SDS011;5508;49.150;11.030;2023-06-22T14:42:05;13.07;;;5.40;;
10910;SDS011;5508;49.150;11.030;2023-06-22T14:45:06;11.57;;;4.78;;
10910;SDS011;5508;49.150;11.030;2023-06-22T14:48:07;15.73;;;5.30;;
10910;SDS011;5508;49.150;11.030;2023-06-22T14:51:08;15.25;;;5.50;;
10910;SDS011;5508;49.150;11.030;2023-06-22T14:54:09;12.85;;;5.20;;
10910;SDS011;5508;49.150;11.030;2023-06-22T14:57:10;12.32;;;4.93;;
10910;SDS011;5508;49.150;11.030;2023-06-22T15:00:10;14.02;;;6.28;;
10910;SDS011;5508;49.150;11.030;2023-06-22T15:03:11;15.30;;;5.55;;
10910;SDS011;5508;49.150;11.030;2023-06-22T15:06:17;9.02;;;4.63;;
10910;SDS011;5508;49.150;11.030;2023-06-22T15:09:17;15.40;;;5.35;;
10910;SDS011;5508;49.150;11.030;2023-06-22T15:12:18;15.85;;;5.32;;
10910;SDS011;5508;49.150;11.030;2023-06-22T15:15:18;17.02;;;5.30;;
10910;SDS011;5508;49.150;11.030;2023-06-22T15:18:19;10.85;;;4.90;;
10910;SDS011;5508;49.150;11.030;2023-06-22T15:21:20;15.63;;;5.95;;
10910;SDS011;5508;49.150;11.030;2023-06-22T15:24:20;11.07;;;5.07;;
10910;SDS011;5508;49.150;11.030;2023-06-22T15:27:21;10.55;;;5.18;;
10910;SDS011;5508;49.150;11.030;2023-06-22T15:30:21;16.38;;;5.55;;
10910;SDS011;5508;49.150;11.030;2023-06-22T15:33:22;12.05;;;5.13;;
10910;SDS011;5508;49.150;11.030;2023-06-22T15:36:24;10.73;;;5.53;;
10910;SDS011;5508;49.150;11.030;2023-06-22T15:39:25;8.73;;;4.80;;
10910;SDS011;5508;49.150;11.030;2023-06-22T15:42:26;9.65;;;4.55;;
10910;SDS011;5508;49.150;11.030;2023-06-22T15:45:27;11.45;;;4.95;;
10910;SDS011;5508;49.150;11.030;2023-06-22T15:48:28;13.00;;;5.13;;
10910;SDS011;5508;49.150;11.030;2023-06-22T15:51:29;11.45;;;5.30;;
10910;SDS011;5508;49.150;11.030;2023-06-22T15:54:30;12.15;;;5.40;;
10910;SDS011;5508;49.150;11.030;2023-06-22T15:57:30;11.57;;;5.22;;
10910;SDS011;5508;49.150;11.030;2023-06-22T16:00:31;11.50;;;4.80;;
10910;SDS011;5508;49.150;11.030;2023-06-22T16:03:32;13.55;;;5.50;;
10910;SDS011;5508;49.150;11.030;2023-06-22T16:06:32;13.07;;;5.22;;
10910;SDS011;5508;49.150;11.030;2023-06-22T16:09:33;15.20;;;6.03;;
10910;SDS011;5508;49.150;11.030;2023-06-22T16:12:34;16.77;;;5.28;;
10910;SDS011;5508;49.150;11.030;2023-06-22T16:15:35;19.70;;;5.60;;
10910;SDS011;5508;49.150;11.030;2023-06-22T16:18:36;14.32;;;5.25;;
10910;SDS011;5508;49.150;11.030;2023-06-22T16:21:36;11.23;;;5.07;;
10910;SDS011;5508;49.150;11.030;2023-06-22T16:24:37;15.02;;;5.88;;
10910;SDS011;5508;49.150;11.030;2023-06-22T16:27:37;14.65;;;5.55;;
10910;SDS011;5508;49.150;11.030;2023-06-22T16:30:38;14.55;;;5.45;;
10910;SDS011;5508;49.150;11.030;2023-06-22T16:33:39;15.27;;;5.55;;
10910;SDS011;5508;49.150;11.030;2023-06-22T16:36:46;12.05;;;5.45;;
10910;SDS011;5508;49.150;11.030;2023-06-22T16:39:47;12.07;;;5.53;;
10910;SDS011;5508;49.150;11.030;2023-06-22T16:42:48;12.52;;;5.30;;
10910;SDS011;5508;49.150;11.030;2023-06-22T16:45:51;9.65;;;5.85;;
10910;SDS011;5508;49.150;11.030;2023-06-22T16:48:51;9.27;;;5.57;;
10910;SDS011;5508;49.150;11.030;2023-06-22T16:51:52;16.05;;;6.20;;
10910;SDS011;5508;49.150;11.030;2023-06-22T16:54:52;7.72;;;4.78;;
10910;SDS011;5508;49.150;11.030;2023-06-22T16:57:53;15.00;;;5.68;;
10910;SDS011;5508;49.150;11.030;2023-06-22T17:00:56;18.17;;;6.35;;
10910;SDS011;5508;49.150;11.030;2023-06-22T17:07:13;10.65;;;5.15;;
10910;SDS011;5508;49.150;11.030;2023-06-22T17:10:15;10.95;;;5.30;;
10910;SDS011;5508;49.150;11.030;2023-06-22T17:13:17;16.13;;;6.40;;
10910;SDS011;5508;49.150;11.030;2023-06-22T17:16:17;16.02;;;6.05;;
10910;SDS011;5508;49.150;11.030;2023-06-22T17:19:19;18.50;;;6.03;;
10910;SDS011;5508;49.150;11.030;2023-06-22T17:22:21;11.98;;;6.25;;
10910;SDS011;5508;49.150;11.030;2023-06-22T17:25:22;13.93;;;5.72;;
10910;SDS011;5508;49.150;11.030;2023-06-22T17:28:26;17.80;;;6.10;;
10910;SDS011;5508;49.150;11.030;2023-06-22T17:31:36;16.70;;;5.78;;
10910;SDS011;5508;49.150;11.030;2023-06-22T17:34:44;14.85;;;5.72;;
10910;SDS011;5508;49.150;11.030;2023-06-22T17:41:01;19.98;;;5.97;;
10910;SDS011;5508;49.150;11.030;2023-06-22T17:44:03;15.15;;;5.80;;
10910;SDS011;5508;49.150;11.030;2023-06-22T17:47:05;13.10;;;6.38;;
10910;SDS011;5508;49.150;11.030;2023-06-22T17:50:06;14.60;;;5.82;;
10910;SDS011;5508;49.150;11.030;2023-06-22T17:53:12;14.82;;;5.35;;
10910;SDS011;5508;49.150;11.030;2023-06-22T17:56:13;11.55;;;5.10;;
10910;SDS011;5508;49.150;11.030;2023-06-22T17:59:13;15.68;;;5.75;;
10910;SDS011;5508;49.150;11.030;2023-06-22T18:02:14;13.48;;;5.93;;
10910;SDS011;5508;49.150;11.030;2023-06-22T18:05:29;12.52;;;5.88;;
10910;SDS011;5508;49.150;11.030;2023-06-22T18:08:31;15.40;;;5.45;;
10910;SDS011;5508;49.150;11.030;2023-06-22T18:11:39;15.90;;;6.80;;
10910;SDS011;5508;49.150;11.030;2023-06-22T18:14:45;12.55;;;5.68;;